sensor_id;sensor_type;location;lat;lon;timestamp;P1;durP1;ratioP1;P2;durP2;ratioP2
7965;SDS011;4028;43.272;26.932;2024-01-25T00:00:33;35.90;;;24.13;;
7965;SDS011;4028;43.272;26.932;2024-01-25T00:02:58;40.47;;;25.73;;
7965;SDS011;4028;43.272;26.932;2024-01-25T00:05:24;36.63;;;24.67;;
7965;SDS011;4028;43.272;26.932;2024-01-25T00:07:49;40.10;;;25.97;;
7965;SDS011;4028;43.272;26.932;2024-01-25T00:10:16;53.47;;;30.73;;
7965;SDS011;4028;43.272;26.932;2024-01-25T00:12:42;55.37;;;32.93;;
7965;SDS011;4028;43.272;26.932;2024-01-25T00:15:08;47.87;;;28.47;;
7965;SDS011;4028;43.272;26.932;2024-01-25T00:17:34;48.43;;;28.27;;
7965;SDS011;4028;43.272;26.932;2024-01-25T00:20:00;45.27;;;28.57;;
7965;SDS011;4028;43.272;26.932;2024-01-25T00:22:25;40.33;;;28.50;;
7965;SDS011;4028;43.272;26.932;2024-01-25T00:24:51;39.40;;;27.37;;
7965;SDS011;4028;43.272;26.932;2024-01-25T00:27:19;46.47;;;30.23;;
7965;SDS011;4028;43.272;26.932;2024-01-25T00:29:45;42.37;;;29.97;;
7965;SDS011;4028;43.272;26.932;2024-01-25T00:32:10;49.77;;;32.50;;
7965;SDS011;4028;43.272;26.932;2024-01-25T00:34:36;61.20;;;39.50;;
7965;SDS011;4028;43.272;26.932;2024-01-25T00:37:01;62.20;;;39.20;;
7965;SDS011;4028;43.272;26.932;2024-01-25T00:39:27;54.53;;;36.20;;
7965;SDS011;4028;43.272;26.932;2024-01-25T00:41:53;43.80;;;29.83;;
7965;SDS011;4028;43.272;26.932;2024-01-25T00:44:28;53.47;;;35.27;;
7965;SDS011;4028;43.272;26.932;2024-01-25T00:46:54;48.23;;;32.07;;
7965;SDS011;4028;43.272;26.932;2024-01-25T00:49:20;49.73;;;34.10;;
7965;SDS011;4028;43.272;26.932;2024-01-25T00:51:46;52.27;;;34.67;;
7965;SDS011;4028;43.272;26.932;2024-01-25T00:54:13;50.77;;;33.77;;
7965;SDS011;4028;43.272;26.932;2024-01-25T00:56:42;50.60;;;31.77;;
7965;SDS011;4028;43.272;26.932;2024-01-25T00:59:07;45.67;;;30.47;;
7965;SDS011;4028;43.272;26.932;2024-01-25T01:01:33;42.40;;;29.60;;
7965;SDS011;4028;43.272;26.932;2024-01-25T01:03:59;41.93;;;28.50;;
7965;SDS011;4028;43.272;26.932;2024-01-25T01:06:25;42.65;;;29.20;;
7965;SDS011;4028;43.272;26.932;2024-01-25T01:08:51;43.93;;;28.70;;
7965;SDS011;4028;43.272;26.932;2024-01-25T01:11:17;43.67;;;27.90;;
7965;SDS011;4028;43.272;26.932;2024-01-25T01:13:43;43.30;;;28.90;;
7965;SDS011;4028;43.272;26.932;2024-01-25T01:16:09;39.27;;;28.27;;
7965;SDS011;4028;43.272;26.932;2024-01-25T01:18:34;37.53;;;28.17;;
7965;SDS011;4028;43.272;26.932;2024-01-25T01:21:00;42.70;;;28.40;;
7965;SDS011;4028;43.272;26.932;2024-01-25T01:23:25;41.43;;;27.27;;
7965;SDS011;4028;43.272;26.932;2024-01-25T01:25:50;39.70;;;27.43;;
7965;SDS011;4028;43.272;26.932;2024-01-25T01:28:16;40.20;;;27.10;;
7965;SDS011;4028;43.272;26.932;2024-01-25T01:30:41;40.20;;;27.97;;
7965;SDS011;4028;43.272;26.932;2024-01-25T01:33:10;38.47;;;25.30;;
7965;SDS011;4028;43.272;26.932;2024-01-25T01:35:35;36.50;;;25.47;;
7965;SDS011;4028;43.272;26.932;2024-01-25T01:38:01;35.50;;;23.50;;
7965;SDS011;4028;43.272;26.932;2024-01-25T01:40:27;30.90;;;21.13;;
7965;SDS011;4028;43.272;26.932;2024-01-25T01:42:58;30.60;;;19.20;;
7965;SDS011;4028;43.272;26.932;2024-01-25T01:45:24;32.70;;;21.20;;
7965;SDS011;4028;43.272;26.932;2024-01-25T01:47:50;34.93;;;23.63;;
7965;SDS011;4028;43.272;26.932;2024-01-25T01:50:15;30.17;;;21.23;;
7965;SDS011;4028;43.272;26.932;2024-01-25T01:52:44;28.03;;;17.17;;
7965;SDS011;4028;43.272;26.932;2024-01-25T01:55:11;22.73;;;15.93;;
7965;SDS011;4028;43.272;26.932;2024-01-25T01:57:37;28.87;;;17.10;;
7965;SDS011;4028;43.272;26.932;2024-01-25T02:00:03;29.03;;;17.27;;
7965;SDS011;4028;43.272;26.932;2024-01-25T02:02:33;27.30;;;16.30;;
7965;SDS011;4028;43.272;26.932;2024-01-25T02:04:59;24.97;;;16.53;;
7965;SDS011;4028;43.272;26.932;2024-01-25T02:07:25;28.97;;;17.33;;
7965;SDS011;4028;43.272;26.932;2024-01-25T02:09:51;22.60;;;16.43;;
7965;SDS011;4028;43.272;26.932;2024-01-25T02:12:17;24.60;;;16.53;;
7965;SDS011;4028;43.272;26.932;2024-01-25T02:14:42;23.30;;;16.10;;
7965;SDS011;4028;43.272;26.932;2024-01-25T02:17:08;25.17;;;15.00;;
7965;SDS011;4028;43.272;26.932;2024-01-25T02:19:33;23.05;;;15.80;;
7965;SDS011;4028;43.272;26.932;2024-01-25T02:21:59;25.05;;;15.50;;
7965;SDS011;4028;43.272;26.932;2024-01-25T02:24:25;25.60;;;17.47;;
7965;SDS011;4028;43.272;26.932;2024-01-25T02:26:51;22.63;;;15.80;;
7965;SDS011;4028;43.272;26.932;2024-01-25T02:29:16;24.57;;;16.93;;
7965;SDS011;4028;43.272;26.932;2024-01-25T02:31:41;22.60;;;15.37;;
7965;SDS011;4028;43.272;26.932;2024-01-25T02:34:07;23.07;;;16.53;;
7965;SDS011;4028;43.272;26.932;2024-01-25T02:36:32;25.77;;;17.43;;
7965;SDS011;4028;43.272;26.932;2024-01-25T02:38:58;29.70;;;18.37;;
7965;SDS011;4028;43.272;26.932;2024-01-25T02:41:23;26.80;;;18.80;;
7965;SDS011;4028;43.272;26.932;2024-01-25T02:43:49;32.03;;;18.80;;
7965;SDS011;4028;43.272;26.932;2024-01-25T02:46:14;28.73;;;18.37;;
7965;SDS011;4028;43.272;26.932;2024-01-25T02:48:40;23.67;;;16.93;;
7965;SDS011;4028;43.272;26.932;2024-01-25T02:51:05;23.70;;;14.90;;
7965;SDS011;4028;43.272;26.932;2024-01-25T02:53:31;22.20;;;14.97;;
7965;SDS011;4028;43.272;26.932;2024-01-25T02:55:56;20.53;;;13.93;;
7965;SDS011;4028;43.272;26.932;2024-01-25T02:58:21;16.70;;;11.83;;
7965;SDS011;4028;43.272;26.932;2024-01-25T03:00:47;22.33;;;12.87;;
7965;SDS011;4028;43.272;26.932;2024-01-25T03:03:13;19.20;;;12.70;;
7965;SDS011;4028;43.272;26.932;2024-01-25T03:05:38;20.27;;;12.17;;
7965;SDS011;4028;43.272;26.932;2024-01-25T03:08:04;18.53;;;12.20;;
7965;SDS011;4028;43.272;26.932;2024-01-25T03:10:29;19.23;;;11.87;;
7965;SDS011;4028;43.272;26.932;2024-01-25T03:12:55;17.80;;;11.87;;
7965;SDS011;4028;43.272;26.932;2024-01-25T03:15:20;17.87;;;12.60;;
7965;SDS011;4028;43.272;26.932;2024-01-25T03:17:46;18.73;;;12.17;;
7965;SDS011;4028;43.272;26.932;2024-01-25T03:20:11;17.60;;;10.60;;
7965;SDS011;4028;43.272;26.932;2024-01-25T03:22:37;11.03;;;7.43;;
7965;SDS011;4028;43.272;26.932;2024-01-25T03:25:02;17.57;;;10.00;;
7965;SDS011;4028;43.272;26.932;2024-01-25T03:27:28;10.95;;;9.00;;
7965;SDS011;4028;43.272;26.932;2024-01-25T03:29:54;12.37;;;9.23;;
7965;SDS011;4028;43.272;26.932;2024-01-25T03:32:19;13.00;;;9.10;;
7965;SDS011;4028;43.272;26.932;2024-01-25T03:34:44;10.40;;;7.30;;
7965;SDS011;4028;43.272;26.932;2024-01-25T03:37:10;7.17;;;5.53;;
7965;SDS011;4028;43.272;26.932;2024-01-25T03:39:36;7.05;;;4.15;;
7965;SDS011;4028;43.272;26.932;2024-01-25T03:42:01;6.33;;;3.83;;
7965;SDS011;4028;43.272;26.932;2024-01-25T03:44:27;7.10;;;3.60;;
7965;SDS011;4028;43.272;26.932;2024-01-25T03:46:52;5.17;;;3.33;;
7965;SDS011;4028;43.272;26.932;2024-01-25T03:49:18;5.80;;;3.47;;
7965;SDS011;4028;43.272;26.932;2024-01-25T03:51:44;4.70;;;3.13;;
7965;SDS011;4028;43.272;26.932;2024-01-25T03:54:10;5.07;;;3.60;;
7965;SDS011;4028;43.272;26.932;2024-01-25T03:56:35;4.60;;;2.90;;
7965;SDS011;4028;43.272;26.932;2024-01-25T03:59:01;3.87;;;3.43;;
7965;SDS011;4028;43.272;26.932;2024-01-25T04:01:26;4.70;;;3.30;;
7965;SDS011;4028;43.272;26.932;2024-01-25T04:03:52;5.93;;;3.67;;
7965;SDS011;4028;43.272;26.932;2024-01-25T04:06:17;5.30;;;3.50;;
7965;SDS011;4028;43.272;26.932;2024-01-25T04:08:43;4.90;;;3.57;;
7965;SDS011;4028;43.272;26.932;2024-01-25T04:11:08;4.00;;;3.60;;
7965;SDS011;4028;43.272;26.932;2024-01-25T04:13:34;4.87;;;3.70;;
7965;SDS011;4028;43.272;26.932;2024-01-25T04:16:03;6.90;;;3.60;;
7965;SDS011;4028;43.272;26.932;2024-01-25T04:18:29;4.90;;;3.60;;
7965;SDS011;4028;43.272;26.932;2024-01-25T04:20:54;5.53;;;4.40;;
7965;SDS011;4028;43.272;26.932;2024-01-25T04:23:20;6.57;;;4.43;;
7965;SDS011;4028;43.272;26.932;2024-01-25T04:25:45;6.10;;;4.63;;
7965;SDS011;4028;43.272;26.932;2024-01-25T04:28:11;6.00;;;4.40;;
7965;SDS011;4028;43.272;26.932;2024-01-25T04:30:36;6.43;;;4.10;;
7965;SDS011;4028;43.272;26.932;2024-01-25T04:33:02;5.50;;;4.53;;
7965;SDS011;4028;43.272;26.932;2024-01-25T04:35:28;12.20;;;7.73;;
7965;SDS011;4028;43.272;26.932;2024-01-25T04:37:53;6.30;;;4.23;;
7965;SDS011;4028;43.272;26.932;2024-01-25T04:40:19;6.83;;;4.27;;
7965;SDS011;4028;43.272;26.932;2024-01-25T04:42:44;6.10;;;4.47;;
7965;SDS011;4028;43.272;26.932;2024-01-25T04:45:10;10.03;;;4.77;;
7965;SDS011;4028;43.272;26.932;2024-01-25T04:47:37;6.83;;;4.90;;
7965;SDS011;4028;43.272;26.932;2024-01-25T04:50:03;7.50;;;4.83;;
7965;SDS011;4028;43.272;26.932;2024-01-25T04:52:29;7.27;;;5.30;;
7965;SDS011;4028;43.272;26.932;2024-01-25T04:54:55;6.50;;;4.47;;
7965;SDS011;4028;43.272;26.932;2024-01-25T04:57:20;4.57;;;3.17;;
7965;SDS011;4028;43.272;26.932;2024-01-25T04:59:46;7.13;;;4.77;;
7965;SDS011;4028;43.272;26.932;2024-01-25T05:02:11;7.17;;;4.07;;
7965;SDS011;4028;43.272;26.932;2024-01-25T05:04:36;5.90;;;4.67;;
7965;SDS011;4028;43.272;26.932;2024-01-25T05:07:02;5.90;;;4.40;;
7965;SDS011;4028;43.272;26.932;2024-01-25T05:09:28;6.87;;;5.10;;
7965;SDS011;4028;43.272;26.932;2024-01-25T05:11:53;6.50;;;4.55;;
7965;SDS011;4028;43.272;26.932;2024-01-25T05:14:24;5.50;;;4.13;;
7965;SDS011;4028;43.272;26.932;2024-01-25T05:16:49;6.53;;;4.97;;
7965;SDS011;4028;43.272;26.932;2024-01-25T05:19:15;6.57;;;4.33;;
7965;SDS011;4028;43.272;26.932;2024-01-25T05:21:40;7.70;;;4.83;;
7965;SDS011;4028;43.272;26.932;2024-01-25T05:24:07;8.40;;;6.03;;
7965;SDS011;4028;43.272;26.932;2024-01-25T05:26:34;6.63;;;5.37;;
7965;SDS011;4028;43.272;26.932;2024-01-25T05:29:00;7.30;;;5.73;;
7965;SDS011;4028;43.272;26.932;2024-01-25T05:31:25;6.23;;;5.00;;
7965;SDS011;4028;43.272;26.932;2024-01-25T05:33:51;6.10;;;4.30;;
7965;SDS011;4028;43.272;26.932;2024-01-25T05:36:16;6.33;;;4.57;;
7965;SDS011;4028;43.272;26.932;2024-01-25T05:38:42;6.47;;;4.87;;
7965;SDS011;4028;43.272;26.932;2024-01-25T05:41:07;7.37;;;4.47;;
7965;SDS011;4028;43.272;26.932;2024-01-25T05:43:33;7.25;;;4.05;;
7965;SDS011;4028;43.272;26.932;2024-01-25T05:45:58;5.27;;;4.10;;
7965;SDS011;4028;43.272;26.932;2024-01-25T05:48:24;5.63;;;5.13;;
7965;SDS011;4028;43.272;26.932;2024-01-25T05:50:49;6.57;;;4.70;;
7965;SDS011;4028;43.272;26.932;2024-01-25T05:53:14;7.77;;;5.83;;
7965;SDS011;4028;43.272;26.932;2024-01-25T05:55:44;5.67;;;5.10;;
7965;SDS011;4028;43.272;26.932;2024-01-25T05:58:09;5.17;;;4.33;;
7965;SDS011;4028;43.272;26.932;2024-01-25T06:00:35;6.60;;;4.90;;
7965;SDS011;4028;43.272;26.932;2024-01-25T06:03:00;6.87;;;4.80;;
7965;SDS011;4028;43.272;26.932;2024-01-25T06:05:25;6.03;;;4.33;;
7965;SDS011;4028;43.272;26.932;2024-01-25T06:07:51;6.60;;;4.40;;
7965;SDS011;4028;43.272;26.932;2024-01-25T06:10:16;4.40;;;3.95;;
7965;SDS011;4028;43.272;26.932;2024-01-25T06:12:45;8.30;;;5.03;;
7965;SDS011;4028;43.272;26.932;2024-01-25T06:15:10;5.70;;;4.10;;
7965;SDS011;4028;43.272;26.932;2024-01-25T06:17:36;5.87;;;4.90;;
7965;SDS011;4028;43.272;26.932;2024-01-25T06:20:01;6.67;;;4.10;;
7965;SDS011;4028;43.272;26.932;2024-01-25T06:22:27;5.20;;;4.17;;
7965;SDS011;4028;43.272;26.932;2024-01-25T06:24:53;7.53;;;5.53;;
7965;SDS011;4028;43.272;26.932;2024-01-25T06:27:18;6.00;;;4.80;;
7965;SDS011;4028;43.272;26.932;2024-01-25T06:29:44;6.27;;;4.23;;
7965;SDS011;4028;43.272;26.932;2024-01-25T06:32:09;7.30;;;4.90;;
7965;SDS011;4028;43.272;26.932;2024-01-25T06:34:35;8.83;;;7.43;;
7965;SDS011;4028;43.272;26.932;2024-01-25T06:37:00;7.20;;;5.10;;
7965;SDS011;4028;43.272;26.932;2024-01-25T06:39:26;6.63;;;5.30;;
7965;SDS011;4028;43.272;26.932;2024-01-25T06:41:51;5.83;;;5.00;;
7965;SDS011;4028;43.272;26.932;2024-01-25T06:44:17;8.47;;;5.20;;
7965;SDS011;4028;43.272;26.932;2024-01-25T06:46:42;5.10;;;4.60;;
7965;SDS011;4028;43.272;26.932;2024-01-25T06:49:08;7.07;;;6.37;;
7965;SDS011;4028;43.272;26.932;2024-01-25T06:51:33;6.07;;;4.70;;
7965;SDS011;4028;43.272;26.932;2024-01-25T06:53:59;6.87;;;5.17;;
7965;SDS011;4028;43.272;26.932;2024-01-25T06:56:24;9.03;;;5.07;;
7965;SDS011;4028;43.272;26.932;2024-01-25T06:58:50;6.40;;;4.53;;
7965;SDS011;4028;43.272;26.932;2024-01-25T07:01:21;7.67;;;4.87;;
7965;SDS011;4028;43.272;26.932;2024-01-25T07:03:48;9.57;;;5.57;;
7965;SDS011;4028;43.272;26.932;2024-01-25T07:06:16;5.00;;;4.50;;
7965;SDS011;4028;43.272;26.932;2024-01-25T07:08:44;5.63;;;4.60;;
7965;SDS011;4028;43.272;26.932;2024-01-25T07:11:10;5.77;;;5.10;;
7965;SDS011;4028;43.272;26.932;2024-01-25T07:13:36;6.63;;;4.67;;
7965;SDS011;4028;43.272;26.932;2024-01-25T07:16:01;7.43;;;4.80;;
7965;SDS011;4028;43.272;26.932;2024-01-25T07:18:27;6.63;;;5.50;;
7965;SDS011;4028;43.272;26.932;2024-01-25T07:20:52;6.93;;;5.17;;
7965;SDS011;4028;43.272;26.932;2024-01-25T07:23:18;9.90;;;6.50;;
7965;SDS011;4028;43.272;26.932;2024-01-25T07:25:43;10.90;;;6.63;;
7965;SDS011;4028;43.272;26.932;2024-01-25T07:28:09;5.93;;;4.33;;
7965;SDS011;4028;43.272;26.932;2024-01-25T07:30:34;9.77;;;6.20;;
7965;SDS011;4028;43.272;26.932;2024-01-25T07:33:00;7.73;;;4.90;;
7965;SDS011;4028;43.272;26.932;2024-01-25T07:35:26;5.93;;;5.10;;
7965;SDS011;4028;43.272;26.932;2024-01-25T07:37:52;6.63;;;4.93;;
7965;SDS011;4028;43.272;26.932;2024-01-25T07:40:17;6.13;;;4.53;;
7965;SDS011;4028;43.272;26.932;2024-01-25T07:42:43;5.50;;;4.50;;
7965;SDS011;4028;43.272;26.932;2024-01-25T07:45:08;7.13;;;5.33;;
7965;SDS011;4028;43.272;26.932;2024-01-25T07:47:34;8.40;;;6.00;;
7965;SDS011;4028;43.272;26.932;2024-01-25T07:50:00;7.50;;;5.77;;
7965;SDS011;4028;43.272;26.932;2024-01-25T07:52:26;8.30;;;5.37;;
7965;SDS011;4028;43.272;26.932;2024-01-25T07:54:51;7.75;;;4.90;;
7965;SDS011;4028;43.272;26.932;2024-01-25T07:57:18;7.73;;;5.30;;
7965;SDS011;4028;43.272;26.932;2024-01-25T07:59:44;8.40;;;5.90;;
7965;SDS011;4028;43.272;26.932;2024-01-25T08:02:09;8.73;;;5.53;;
7965;SDS011;4028;43.272;26.932;2024-01-25T08:04:35;7.97;;;6.40;;
7965;SDS011;4028;43.272;26.932;2024-01-25T08:07:00;6.93;;;5.40;;
7965;SDS011;4028;43.272;26.932;2024-01-25T08:09:26;8.97;;;5.77;;
7965;SDS011;4028;43.272;26.932;2024-01-25T08:11:51;8.90;;;5.70;;
7965;SDS011;4028;43.272;26.932;2024-01-25T08:14:17;6.17;;;4.90;;
7965;SDS011;4028;43.272;26.932;2024-01-25T08:16:42;6.27;;;5.47;;
7965;SDS011;4028;43.272;26.932;2024-01-25T08:19:08;4.90;;;4.07;;
7965;SDS011;4028;43.272;26.932;2024-01-25T08:21:33;6.00;;;5.10;;
7965;SDS011;4028;43.272;26.932;2024-01-25T08:24:00;4.83;;;4.10;;
7965;SDS011;4028;43.272;26.932;2024-01-25T08:26:26;8.50;;;5.15;;
7965;SDS011;4028;43.272;26.932;2024-01-25T08:28:52;11.53;;;4.83;;
7965;SDS011;4028;43.272;26.932;2024-01-25T08:31:17;6.80;;;4.53;;
7965;SDS011;4028;43.272;26.932;2024-01-25T08:33:43;7.80;;;5.07;;
7965;SDS011;4028;43.272;26.932;2024-01-25T08:36:12;7.33;;;5.40;;
7965;SDS011;4028;43.272;26.932;2024-01-25T08:38:38;6.83;;;4.17;;
7965;SDS011;4028;43.272;26.932;2024-01-25T08:41:03;5.03;;;4.10;;
7965;SDS011;4028;43.272;26.932;2024-01-25T08:43:29;9.00;;;5.87;;
7965;SDS011;4028;43.272;26.932;2024-01-25T08:45:55;9.03;;;5.90;;
7965;SDS011;4028;43.272;26.932;2024-01-25T08:48:20;8.77;;;7.07;;
7965;SDS011;4028;43.272;26.932;2024-01-25T08:50:46;10.10;;;7.67;;
7965;SDS011;4028;43.272;26.932;2024-01-25T08:53:11;9.40;;;6.53;;
7965;SDS011;4028;43.272;26.932;2024-01-25T08:55:37;5.40;;;4.50;;
7965;SDS011;4028;43.272;26.932;2024-01-25T08:58:02;4.70;;;4.27;;
7965;SDS011;4028;43.272;26.932;2024-01-25T09:00:28;5.53;;;4.70;;
7965;SDS011;4028;43.272;26.932;2024-01-25T09:02:53;8.90;;;6.70;;
7965;SDS011;4028;43.272;26.932;2024-01-25T09:05:19;6.90;;;5.17;;
7965;SDS011;4028;43.272;26.932;2024-01-25T09:07:44;7.10;;;5.47;;
7965;SDS011;4028;43.272;26.932;2024-01-25T09:10:10;4.83;;;4.07;;
7965;SDS011;4028;43.272;26.932;2024-01-25T09:12:37;5.77;;;4.17;;
7965;SDS011;4028;43.272;26.932;2024-01-25T09:15:04;6.37;;;4.93;;
7965;SDS011;4028;43.272;26.932;2024-01-25T09:17:30;11.27;;;8.80;;
7965;SDS011;4028;43.272;26.932;2024-01-25T09:19:55;8.50;;;5.27;;
7965;SDS011;4028;43.272;26.932;2024-01-25T09:22:24;10.07;;;6.97;;
7965;SDS011;4028;43.272;26.932;2024-01-25T09:24:49;13.00;;;9.83;;
7965;SDS011;4028;43.272;26.932;2024-01-25T09:27:15;10.57;;;7.60;;
7965;SDS011;4028;43.272;26.932;2024-01-25T09:29:41;9.57;;;6.33;;
7965;SDS011;4028;43.272;26.932;2024-01-25T09:32:07;19.40;;;12.50;;
7965;SDS011;4028;43.272;26.932;2024-01-25T09:34:36;8.70;;;6.10;;
7965;SDS011;4028;43.272;26.932;2024-01-25T09:37:03;9.30;;;7.87;;
7965;SDS011;4028;43.272;26.932;2024-01-25T09:39:29;9.67;;;6.53;;
7965;SDS011;4028;43.272;26.932;2024-01-25T09:41:54;5.60;;;4.40;;
7965;SDS011;4028;43.272;26.932;2024-01-25T09:44:20;8.70;;;5.53;;
7965;SDS011;4028;43.272;26.932;2024-01-25T09:46:46;6.70;;;5.63;;
7965;SDS011;4028;43.272;26.932;2024-01-25T09:49:12;8.60;;;5.53;;
7965;SDS011;4028;43.272;26.932;2024-01-25T09:51:38;8.30;;;7.37;;
7965;SDS011;4028;43.272;26.932;2024-01-25T09:54:05;9.40;;;6.43;;
7965;SDS011;4028;43.272;26.932;2024-01-25T09:56:31;8.10;;;4.87;;
7965;SDS011;4028;43.272;26.932;2024-01-25T09:58:58;9.60;;;5.33;;
7965;SDS011;4028;43.272;26.932;2024-01-25T10:01:25;9.10;;;5.30;;
7965;SDS011;4028;43.272;26.932;2024-01-25T10:03:50;7.13;;;5.40;;
7965;SDS011;4028;43.272;26.932;2024-01-25T10:06:16;5.93;;;4.83;;
7965;SDS011;4028;43.272;26.932;2024-01-25T10:08:42;8.13;;;5.23;;
7965;SDS011;4028;43.272;26.932;2024-01-25T10:11:08;8.10;;;5.10;;
7965;SDS011;4028;43.272;26.932;2024-01-25T10:13:43;9.30;;;5.07;;
7965;SDS011;4028;43.272;26.932;2024-01-25T10:16:13;7.30;;;4.60;;
7965;SDS011;4028;43.272;26.932;2024-01-25T10:18:43;8.20;;;6.37;;
7965;SDS011;4028;43.272;26.932;2024-01-25T10:21:12;8.03;;;5.73;;
7965;SDS011;4028;43.272;26.932;2024-01-25T10:23:38;7.73;;;5.83;;
7965;SDS011;4028;43.272;26.932;2024-01-25T10:26:04;7.80;;;5.50;;
7965;SDS011;4028;43.272;26.932;2024-01-25T10:28:30;8.47;;;4.80;;
7965;SDS011;4028;43.272;26.932;2024-01-25T10:30:57;10.10;;;4.60;;
7965;SDS011;4028;43.272;26.932;2024-01-25T10:33:25;5.40;;;4.37;;
7965;SDS011;4028;43.272;26.932;2024-01-25T10:35:55;8.80;;;6.43;;
7965;SDS011;4028;43.272;26.932;2024-01-25T10:38:30;6.30;;;4.70;;
7965;SDS011;4028;43.272;26.932;2024-01-25T10:41:01;7.50;;;4.87;;
7965;SDS011;4028;43.272;26.932;2024-01-25T10:43:28;8.97;;;5.67;;
7965;SDS011;4028;43.272;26.932;2024-01-25T10:45:57;8.00;;;5.03;;
7965;SDS011;4028;43.272;26.932;2024-01-25T10:48:27;11.30;;;5.33;;
7965;SDS011;4028;43.272;26.932;2024-01-25T10:50:54;7.63;;;4.67;;
7965;SDS011;4028;43.272;26.932;2024-01-25T10:53:23;14.03;;;10.47;;
7965;SDS011;4028;43.272;26.932;2024-01-25T10:55:50;10.27;;;5.47;;
7965;SDS011;4028;43.272;26.932;2024-01-25T10:58:16;6.77;;;3.93;;
7965;SDS011;4028;43.272;26.932;2024-01-25T11:00:51;5.93;;;4.10;;
7965;SDS011;4028;43.272;26.932;2024-01-25T11:03:18;6.30;;;3.90;;
7965;SDS011;4028;43.272;26.932;2024-01-25T11:05:44;7.37;;;3.80;;
7965;SDS011;4028;43.272;26.932;2024-01-25T11:08:17;9.27;;;5.17;;
7965;SDS011;4028;43.272;26.932;2024-01-25T11:10:46;12.90;;;9.53;;
7965;SDS011;4028;43.272;26.932;2024-01-25T11:13:15;9.10;;;5.80;;
7965;SDS011;4028;43.272;26.932;2024-01-25T11:15:41;8.00;;;5.37;;
7965;SDS011;4028;43.272;26.932;2024-01-25T11:18:08;8.83;;;4.60;;
7965;SDS011;4028;43.272;26.932;2024-01-25T11:20:34;10.87;;;4.53;;
7965;SDS011;4028;43.272;26.932;2024-01-25T11:23:01;9.93;;;5.43;;
7965;SDS011;4028;43.272;26.932;2024-01-25T11:25:32;7.97;;;4.93;;
7965;SDS011;4028;43.272;26.932;2024-01-25T11:27:59;8.70;;;4.60;;
7965;SDS011;4028;43.272;26.932;2024-01-25T11:30:26;9.93;;;4.70;;
7965;SDS011;4028;43.272;26.932;2024-01-25T11:32:53;7.07;;;4.53;;
7965;SDS011;4028;43.272;26.932;2024-01-25T11:35:18;8.87;;;5.00;;
7965;SDS011;4028;43.272;26.932;2024-01-25T11:37:46;7.73;;;5.93;;
7965;SDS011;4028;43.272;26.932;2024-01-25T11:40:12;9.57;;;6.37;;
7965;SDS011;4028;43.272;26.932;2024-01-25T11:42:40;9.60;;;6.70;;
7965;SDS011;4028;43.272;26.932;2024-01-25T11:45:07;9.27;;;4.80;;
7965;SDS011;4028;43.272;26.932;2024-01-25T11:47:35;13.00;;;4.63;;
7965;SDS011;4028;43.272;26.932;2024-01-25T11:50:01;12.87;;;5.90;;
7965;SDS011;4028;43.272;26.932;2024-01-25T11:52:27;11.40;;;6.67;;
7965;SDS011;4028;43.272;26.932;2024-01-25T11:54:53;9.47;;;5.47;;
7965;SDS011;4028;43.272;26.932;2024-01-25T11:57:18;13.27;;;7.37;;
7965;SDS011;4028;43.272;26.932;2024-01-25T11:59:45;12.67;;;7.40;;
7965;SDS011;4028;43.272;26.932;2024-01-25T12:02:14;11.20;;;4.63;;
7965;SDS011;4028;43.272;26.932;2024-01-25T12:04:40;8.73;;;4.43;;
7965;SDS011;4028;43.272;26.932;2024-01-25T12:07:05;9.23;;;5.57;;
7965;SDS011;4028;43.272;26.932;2024-01-25T12:09:32;11.00;;;7.70;;
7965;SDS011;4028;43.272;26.932;2024-01-25T12:11:59;8.13;;;5.73;;
7965;SDS011;4028;43.272;26.932;2024-01-25T12:14:26;9.70;;;7.20;;
7965;SDS011;4028;43.272;26.932;2024-01-25T12:16:55;8.67;;;5.23;;
7965;SDS011;4028;43.272;26.932;2024-01-25T12:19:21;9.10;;;5.07;;
7965;SDS011;4028;43.272;26.932;2024-01-25T12:21:47;6.67;;;4.40;;
7965;SDS011;4028;43.272;26.932;2024-01-25T12:24:12;9.57;;;5.37;;
7965;SDS011;4028;43.272;26.932;2024-01-25T12:26:38;7.77;;;5.30;;
7965;SDS011;4028;43.272;26.932;2024-01-25T12:29:03;5.97;;;4.27;;
7965;SDS011;4028;43.272;26.932;2024-01-25T12:31:30;10.53;;;5.20;;
7965;SDS011;4028;43.272;26.932;2024-01-25T12:33:56;9.63;;;4.17;;
7965;SDS011;4028;43.272;26.932;2024-01-25T12:36:22;7.27;;;5.27;;
7965;SDS011;4028;43.272;26.932;2024-01-25T12:38:47;12.53;;;6.53;;
7965;SDS011;4028;43.272;26.932;2024-01-25T12:41:14;7.97;;;5.70;;
7965;SDS011;4028;43.272;26.932;2024-01-25T12:43:39;11.33;;;5.30;;
7965;SDS011;4028;43.272;26.932;2024-01-25T12:46:05;10.87;;;6.17;;
7965;SDS011;4028;43.272;26.932;2024-01-25T12:48:31;10.50;;;7.63;;
7965;SDS011;4028;43.272;26.932;2024-01-25T12:50:56;6.83;;;5.00;;
7965;SDS011;4028;43.272;26.932;2024-01-25T12:53:22;9.73;;;4.83;;
7965;SDS011;4028;43.272;26.932;2024-01-25T12:55:47;11.37;;;5.07;;
7965;SDS011;4028;43.272;26.932;2024-01-25T12:58:13;12.73;;;7.23;;
7965;SDS011;4028;43.272;26.932;2024-01-25T13:00:38;8.77;;;5.17;;
7965;SDS011;4028;43.272;26.932;2024-01-25T13:03:04;11.43;;;4.67;;
7965;SDS011;4028;43.272;26.932;2024-01-25T13:05:30;9.53;;;4.60;;
7965;SDS011;4028;43.272;26.932;2024-01-25T13:07:59;9.83;;;5.17;;
7965;SDS011;4028;43.272;26.932;2024-01-25T13:10:26;8.87;;;4.80;;
7965;SDS011;4028;43.272;26.932;2024-01-25T13:12:51;10.73;;;5.47;;
7965;SDS011;4028;43.272;26.932;2024-01-25T13:15:17;11.53;;;5.57;;
7965;SDS011;4028;43.272;26.932;2024-01-25T13:17:43;11.83;;;6.87;;
7965;SDS011;4028;43.272;26.932;2024-01-25T13:20:08;9.33;;;5.57;;
7965;SDS011;4028;43.272;26.932;2024-01-25T13:22:34;9.50;;;6.13;;
7965;SDS011;4028;43.272;26.932;2024-01-25T13:25:00;12.20;;;8.20;;
7965;SDS011;4028;43.272;26.932;2024-01-25T13:27:26;9.07;;;5.07;;
7965;SDS011;4028;43.272;26.932;2024-01-25T13:29:52;6.70;;;4.80;;
7965;SDS011;4028;43.272;26.932;2024-01-25T13:32:18;10.60;;;6.07;;
7965;SDS011;4028;43.272;26.932;2024-01-25T13:34:44;9.47;;;4.83;;
7965;SDS011;4028;43.272;26.932;2024-01-25T13:37:09;10.73;;;5.40;;
7965;SDS011;4028;43.272;26.932;2024-01-25T13:39:35;7.23;;;4.30;;
7965;SDS011;4028;43.272;26.932;2024-01-25T13:42:00;9.80;;;4.43;;
7965;SDS011;4028;43.272;26.932;2024-01-25T13:44:26;9.80;;;4.30;;
7965;SDS011;4028;43.272;26.932;2024-01-25T13:46:51;10.60;;;4.80;;
7965;SDS011;4028;43.272;26.932;2024-01-25T13:49:17;8.90;;;4.70;;
7965;SDS011;4028;43.272;26.932;2024-01-25T13:51:45;12.17;;;6.13;;
7965;SDS011;4028;43.272;26.932;2024-01-25T13:54:11;8.27;;;4.83;;
7965;SDS011;4028;43.272;26.932;2024-01-25T13:56:36;7.83;;;4.47;;
7965;SDS011;4028;43.272;26.932;2024-01-25T13:59:03;11.40;;;4.20;;
7965;SDS011;4028;43.272;26.932;2024-01-25T14:01:28;9.73;;;5.27;;
7965;SDS011;4028;43.272;26.932;2024-01-25T14:03:53;10.57;;;4.93;;
7965;SDS011;4028;43.272;26.932;2024-01-25T14:06:19;11.27;;;7.53;;
7965;SDS011;4028;43.272;26.932;2024-01-25T14:08:44;14.53;;;6.03;;
7965;SDS011;4028;43.272;26.932;2024-01-25T14:11:10;12.70;;;6.00;;
7965;SDS011;4028;43.272;26.932;2024-01-25T14:13:35;13.40;;;5.67;;
7965;SDS011;4028;43.272;26.932;2024-01-25T14:16:01;9.87;;;4.83;;
7965;SDS011;4028;43.272;26.932;2024-01-25T14:18:27;10.07;;;5.63;;
7965;SDS011;4028;43.272;26.932;2024-01-25T14:20:54;15.20;;;9.30;;
7965;SDS011;4028;43.272;26.932;2024-01-25T14:23:19;17.60;;;13.33;;
7965;SDS011;4028;43.272;26.932;2024-01-25T14:25:45;12.67;;;7.07;;
7965;SDS011;4028;43.272;26.932;2024-01-25T14:28:11;8.60;;;5.57;;
7965;SDS011;4028;43.272;26.932;2024-01-25T14:30:36;11.10;;;6.27;;
7965;SDS011;4028;43.272;26.932;2024-01-25T14:33:02;13.23;;;7.60;;
7965;SDS011;4028;43.272;26.932;2024-01-25T14:35:28;11.97;;;7.73;;
7965;SDS011;4028;43.272;26.932;2024-01-25T14:37:54;17.10;;;12.20;;
7965;SDS011;4028;43.272;26.932;2024-01-25T14:40:21;16.13;;;10.77;;
7965;SDS011;4028;43.272;26.932;2024-01-25T14:42:47;13.37;;;7.37;;
7965;SDS011;4028;43.272;26.932;2024-01-25T14:45:12;13.00;;;7.67;;